Time;durP1;ratioP1;P1;durP2;ratioP2;P2;SDS_P1;SDS_P2;PMS_P1;PMS_P2;Temp;Humidity;BMP_temperature;BMP_pressure;BME280_temperature;BME280_humidity;BME280_pressure;Samples;Min_cycle;Max_cycle;Signal;HPM_P1;HPM_P2
2023/03/23 00:01:19;;;;;;;6.68;3.65;;;10.20;99.90;;;;;;5046402;28;20166;-77
2023/03/23 00:03:46;;;;;;;6.75;3.00;;;10.10;99.90;;;;;;5047859;28;20175;-76
2023/03/23 00:06:16;;;;;;;8.38;4.25;;;10.10;99.90;;;;;;5032217;28;20501;-76
2023/03/23 00:08:47;;;;;;;8.63;4.97;;;10.10;99.90;;;;;;5029741;28;20539;-76
2023/03/23 00:11:21;;;;;;;10.07;5.10;;;10.10;99.90;;;;;;5013693;28;20068;-76
2023/03/23 00:13:52;;;;;;;8.65;5.20;;;10.10;99.90;;;;;;5019762;28;20044;-75
2023/03/23 00:16:28;;;;;;;8.95;5.88;;;10.10;99.90;;;;;;5064084;28;20157;-77
2023/03/23 00:18:56;;;;;;;12.35;6.65;;;10.10;99.90;;;;;;5060510;28;20119;-77
2023/03/23 00:21:25;;;;;;;11.90;6.82;;;10.10;99.90;;;;;;5057874;28;20059;-75
2023/03/23 00:23:53;;;;;;;11.77;6.63;;;10.10;99.90;;;;;;5056867;28;20123;-77
2023/03/23 00:26:19;;;;;;;11.10;7.07;;;10.10;99.90;;;;;;5056065;28;20443;-76
2023/03/23 00:28:46;;;;;;;12.13;7.57;;;10.20;99.90;;;;;;5057092;28;20041;-76
2023/03/23 00:31:13;;;;;;;11.32;7.93;;;10.10;99.90;;;;;;5039429;28;20040;-77
2023/03/23 00:33:40;;;;;;;12.27;8.13;;;10.20;99.90;;;;;;5064557;28;20441;-77
2023/03/23 00:36:11;;;;;;;14.00;10.10;;;10.20;99.90;;;;;;5041038;28;20048;-76
2023/03/23 00:38:39;;;;;;;12.90;10.13;;;10.20;99.90;;;;;;5059345;28;20477;-77
2023/03/23 00:41:05;;;;;;;16.20;11.25;;;10.20;99.90;;;;;;5053231;28;20047;-77
2023/03/23 00:43:35;;;;;;;18.30;12.80;;;10.20;99.90;;;;;;5053133;28;20040;-77
2023/03/23 00:46:02;;;;;;;20.40;13.02;;;10.30;99.90;;;;;;5060465;28;20401;-77
2023/03/23 00:48:29;;;;;;;19.00;14.25;;;10.60;99.90;;;;;;5059081;28;20040;-77
2023/03/23 00:50:55;;;;;;;22.30;14.63;;;10.30;99.90;;;;;;5052926;28;20040;-76
2023/03/23 00:53:22;;;;;;;22.35;14.20;;;10.30;99.90;;;;;;5032873;28;20042;-77
2023/03/23 00:55:49;;;;;;;19.77;14.23;;;10.40;99.90;;;;;;5031637;28;20568;-74
2023/03/23 00:58:15;;;;;;;22.08;12.90;;;10.40;99.90;;;;;;5036305;28;20390;-75
2023/03/23 01:00:42;;;;;;;12.35;7.82;;;10.40;99.90;;;;;;5055909;28;20145;-75
2023/03/23 01:03:11;;;;;;;11.32;5.85;;;10.40;99.90;;;;;;5037813;28;20084;-75
2023/03/23 01:05:39;;;;;;;10.60;4.25;;;10.40;99.90;;;;;;5053579;28;20041;-75
2023/03/23 01:08:05;;;;;;;9.77;3.65;;;10.30;99.90;;;;;;5054031;28;20060;-76
2023/03/23 01:10:32;;;;;;;7.90;3.70;;;10.30;99.90;;;;;;5053318;28;20045;-76
2023/03/23 01:13:00;;;;;;;10.65;3.88;;;10.30;99.90;;;;;;5050696;28;20045;-76
2023/03/23 01:15:27;;;;;;;6.85;3.42;;;10.20;99.90;;;;;;5037688;28;20051;-76
2023/03/23 01:17:53;;;;;;;10.10;3.42;;;10.20;99.90;;;;;;5053808;28;20045;-77
2023/03/23 01:20:19;;;;;;;8.35;3.10;;;10.20;99.90;;;;;;5055285;28;20063;-76
2023/03/23 01:22:45;;;;;;;7.13;3.53;;;10.20;99.90;;;;;;5050952;28;20448;-77
2023/03/23 01:25:13;;;;;;;9.38;3.88;;;10.10;99.90;;;;;;5053534;28;20048;-76
2023/03/23 01:27:39;;;;;;;10.48;4.40;;;10.10;99.90;;;;;;5055036;28;20041;-77
2023/03/23 01:30:07;;;;;;;8.20;4.95;;;10.10;99.90;;;;;;5057920;28;20909;-77
2023/03/23 01:32:33;;;;;;;10.10;5.47;;;10.10;99.90;;;;;;5034951;28;20914;-77
2023/03/23 01:34:59;;;;;;;13.18;6.40;;;10.10;99.90;;;;;;5052299;28;20052;-78
2023/03/23 01:37:26;;;;;;;11.20;7.03;;;10.10;99.90;;;;;;5057709;28;20041;-77
2023/03/23 01:39:53;;;;;;;13.40;7.53;;;10.10;99.90;;;;;;5046121;28;20146;-77
2023/03/23 01:42:22;;;;;;;13.10;8.55;;;10.10;99.90;;;;;;5036743;28;20537;-77
2023/03/23 01:44:48;;;;;;;17.00;8.77;;;10.20;99.90;;;;;;5023964;28;20037;-77
2023/03/23 01:47:14;;;;;;;14.70;8.77;;;10.20;99.90;;;;;;5027700;28;20060;-77
2023/03/23 01:49:44;;;;;;;16.10;8.73;;;10.30;99.90;;;;;;5043044;28;20049;-77
2023/03/23 01:52:23;;;;;;;18.55;9.55;;;10.30;99.90;;;;;;5027622;28;20080;-77
2023/03/23 01:54:52;;;;;;;15.15;7.93;;;10.30;99.90;;;;;;5037646;28;20473;-77
2023/03/23 01:57:26;;;;;;;14.68;8.38;;;10.40;99.90;;;;;;5036636;28;20049;-78
2023/03/23 01:59:55;;;;;;;16.83;8.02;;;10.40;99.90;;;;;;5043500;28;20141;-77
2023/03/23 02:02:22;;;;;;;15.27;7.88;;;10.40;99.90;;;;;;5039864;28;20053;-78
2023/03/23 02:04:49;;;;;;;15.00;8.10;;;10.50;99.90;;;;;;5028418;28;20040;-77
2023/03/23 02:07:17;;;;;;;15.75;8.23;;;10.50;99.90;;;;;;5025976;28;20049;-76
2023/03/23 02:09:43;;;;;;;21.63;8.88;;;10.50;99.90;;;;;;5025378;28;20394;-77
2023/03/23 02:12:09;;;;;;;17.42;7.57;;;10.50;99.90;;;;;;5032504;28;20056;-76
2023/03/23 02:14:35;;;;;;;17.75;7.72;;;10.50;99.90;;;;;;5028426;28;20988;-76
2023/03/23 02:17:41;;;;;;;13.82;7.38;;;10.60;99.90;;;;;;5037011;28;20037;-76
2023/03/23 02:20:31;;;;;;;16.00;7.68;;;10.50;99.90;;;;;;5017687;28;20067;-76
2023/03/23 02:23:29;;;;;;;12.43;7.20;;;10.50;99.90;;;;;;5029955;28;20053;-76
2023/03/23 02:26:16;;;;;;;14.43;6.47;;;10.60;99.90;;;;;;5008205;28;20191;-76
2023/03/23 02:29:01;;;;;;;17.77;7.03;;;10.60;99.90;;;;;;5043101;28;20072;-76
2023/03/23 02:31:38;;;;;;;19.05;6.63;;;10.90;99.90;;;;;;5028638;28;20053;-77
2023/03/23 02:34:18;;;;;;;16.17;7.07;;;10.60;99.90;;;;;;5020426;28;20068;-77
2023/03/23 02:37:03;;;;;;;12.90;7.03;;;10.90;99.90;;;;;;5030160;28;20140;-77
2023/03/23 02:39:47;;;;;;;13.75;7.20;;;10.70;99.90;;;;;;5037586;28;20137;-77
2023/03/23 02:42:20;;;;;;;14.85;6.47;;;10.60;99.90;;;;;;5065373;28;20108;-77
2023/03/23 02:44:47;;;;;;;12.45;6.03;;;10.70;99.90;;;;;;5053008;28;20045;-77
2023/03/23 02:47:25;;;;;;;14.30;5.65;;;10.70;99.90;;;;;;5050737;28;20307;-77
2023/03/23 02:49:55;;;;;;;15.80;5.85;;;10.70;99.90;;;;;;5046079;28;20416;-78
2023/03/23 02:52:29;;;;;;;13.32;6.47;;;10.60;99.90;;;;;;5063605;28;20127;-78
2023/03/23 02:54:56;;;;;;;11.43;5.82;;;10.70;99.90;;;;;;5062135;28;20663;-78
2023/03/23 02:57:27;;;;;;;13.07;6.28;;;10.70;99.90;;;;;;5054336;28;20131;-77
2023/03/23 02:59:53;;;;;;;10.68;5.80;;;10.70;99.90;;;;;;5038636;28;20459;-77
2023/03/23 03:02:52;;;;;;;11.75;5.82;;;10.70;99.90;;;;;;5054101;28;20044;-78
2023/03/23 03:05:37;;;;;;;14.48;6.00;;;10.80;99.90;;;;;;5047491;28;20052;-77
2023/03/23 03:08:17;;;;;;;11.80;5.55;;;10.70;99.90;;;;;;5042515;28;20131;-77
2023/03/23 03:10:59;;;;;;;10.73;5.60;;;10.70;99.90;;;;;;5050715;28;20660;-76
2023/03/23 03:13:33;;;;;;;10.77;5.32;;;10.70;99.90;;;;;;5055609;28;20533;-76
2023/03/23 03:16:32;;;;;;;11.02;5.43;;;10.70;99.90;;;;;;5031863;28;20056;-76
2023/03/23 03:19:00;;;;;;;12.55;5.90;;;10.70;99.90;;;;;;5045094;28;20117;-76
2023/03/23 03:21:30;;;;;;;14.90;5.50;;;10.70;99.90;;;;;;5063152;28;20048;-77
2023/03/23 03:24:00;;;;;;;10.90;5.30;;;10.60;99.90;;;;;;5056696;28;20045;-77
2023/03/23 03:26:28;;;;;;;17.17;5.05;;;10.70;99.90;;;;;;5036078;28;20078;-76
2023/03/23 03:28:54;;;;;;;11.65;5.13;;;10.60;99.90;;;;;;5056904;28;20065;-77
2023/03/23 03:31:24;;;;;;;11.60;5.25;;;10.60;99.90;;;;;;5057188;28;20048;-78
2023/03/23 03:33:50;;;;;;;14.82;5.90;;;10.70;99.90;;;;;;5038601;28;20102;-77
2023/03/23 03:36:25;;;;;;;11.30;5.70;;;10.70;99.90;;;;;;5038837;28;20397;-76
2023/03/23 03:38:52;;;;;;;10.70;5.22;;;10.70;99.90;;;;;;5054128;28;20049;-77
2023/03/23 03:41:19;;;;;;;14.20;4.75;;;11.00;99.90;;;;;;5048646;28;20044;-77
2023/03/23 03:43:45;;;;;;;10.43;5.55;;;10.70;99.90;;;;;;5067328;28;20036;-76
2023/03/23 03:46:11;;;;;;;12.93;5.15;;;10.70;99.90;;;;;;5061439;28;20043;-77
2023/03/23 03:48:37;;;;;;;19.27;5.38;;;10.70;99.90;;;;;;5042474;28;20278;-75
2023/03/23 03:51:03;;;;;;;15.43;5.20;;;10.70;99.90;;;;;;5054688;28;20043;-77
2023/03/23 03:53:30;;;;;;;10.43;5.07;;;10.70;99.90;;;;;;5056887;28;20040;-76
2023/03/23 03:55:59;;;;;;;13.20;5.57;;;10.70;99.90;;;;;;5047313;28;20052;-76
2023/03/23 03:58:31;;;;;;;10.57;4.90;;;10.60;99.90;;;;;;5040796;28;20040;-75
2023/03/23 04:01:00;;;;;;;14.23;5.70;;;10.60;99.90;;;;;;5049390;28;20114;-77
2023/03/23 04:03:27;;;;;;;11.65;5.32;;;10.60;99.90;;;;;;5058441;28;20044;-76
2023/03/23 04:05:55;;;;;;;11.25;4.50;;;10.60;99.90;;;;;;5057878;28;20766;-76
2023/03/23 04:08:23;;;;;;;12.40;4.93;;;10.60;99.90;;;;;;5061414;28;20044;-77
2023/03/23 04:10:50;;;;;;;13.55;4.63;;;10.60;99.90;;;;;;5060490;28;20460;-77
2023/03/23 04:13:16;;;;;;;8.52;3.00;;;10.60;99.90;;;;;;5057153;28;20485;-74
2023/03/23 04:15:44;;;;;;;7.80;3.35;;;10.50;99.90;;;;;;5050462;28;20537;-74
2023/03/23 04:18:09;;;;;;;11.45;3.50;;;10.50;99.90;;;;;;5034872;28;20493;-74
2023/03/23 04:20:37;;;;;;;9.95;3.53;;;10.40;99.90;;;;;;5052097;28;20135;-75
2023/03/23 04:23:03;;;;;;;8.55;3.53;;;10.40;99.90;;;;;;5050665;28;20128;-76
2023/03/23 04:25:32;;;;;;;9.32;3.05;;;10.40;99.90;;;;;;5060888;28;20048;-74
2023/03/23 04:28:00;;;;;;;10.85;3.38;;;10.30;99.90;;;;;;5056239;28;20051;-75
2023/03/23 04:30:28;;;;;;;7.38;2.78;;;10.30;99.90;;;;;;5050179;28;20145;-75
2023/03/23 04:32:55;;;;;;;9.45;2.67;;;10.30;99.90;;;;;;5046710;28;20051;-75
2023/03/23 04:35:26;;;;;;;8.77;2.40;;;10.30;99.90;;;;;;5053107;28;20058;-76
2023/03/23 04:37:53;;;;;;;;;;;10.20;99.90;;;;;;5037471;28;20504;-77
2023/03/23 04:40:19;;;;;;;7.75;2.90;;;10.20;99.90;;;;;;5060279;28;20123;-79
2023/03/23 04:42:46;;;;;;;10.55;3.00;;;10.20;99.90;;;;;;5035660;28;20508;-77
2023/03/23 04:45:21;;;;;;;9.18;2.78;;;10.20;99.90;;;;;;5035515;28;20063;-77
2023/03/23 04:47:57;;;;;;;11.52;2.55;;;10.20;99.90;;;;;;5045673;28;20036;-77
2023/03/23 04:50:26;;;;;;;9.73;2.90;;;10.30;99.90;;;;;;5049613;28;20040;-77
2023/03/23 04:52:53;;;;;;;10.70;2.08;;;10.10;99.90;;;;;;5033803;28;20044;-77
2023/03/23 04:55:20;;;;;;;9.90;2.20;;;10.00;99.90;;;;;;5048404;28;20124;-79
2023/03/23 04:57:47;;;;;;;9.07;2.13;;;10.00;99.90;;;;;;5038535;28;20138;-79
2023/03/23 05:00:16;;;;;;;10.23;2.20;;;10.00;99.90;;;;;;5026884;28;20501;-78
2023/03/23 05:02:43;;;;;;;11.13;2.58;;;10.00;99.90;;;;;;5068728;28;20257;-78
2023/03/23 05:05:11;;;;;;;13.40;2.80;;;10.00;99.90;;;;;;5051020;28;20509;-78
2023/03/23 05:07:41;;;;;;;10.05;2.78;;;10.00;99.90;;;;;;5052461;28;20104;-79
2023/03/23 05:10:09;;;;;;;13.40;3.97;;;9.90;99.90;;;;;;5051222;28;20051;-78
2023/03/23 05:12:35;;;;;;;15.50;3.22;;;10.00;99.90;;;;;;5056494;28;20101;-77
2023/03/23 05:15:01;;;;;;;13.68;3.03;;;10.00;99.90;;;;;;5049283;28;20044;-78
2023/03/23 05:17:27;;;;;;;12.15;3.05;;;10.00;99.90;;;;;;5051250;28;20058;-78
2023/03/23 05:19:53;;;;;;;20.52;3.67;;;10.00;99.90;;;;;;5061625;28;20072;-78
2023/03/23 05:22:20;;;;;;;15.07;3.58;;;10.00;99.90;;;;;;5046461;28;20149;-78
2023/03/23 05:24:47;;;;;;;17.80;3.65;;;10.00;99.90;;;;;;5037792;28;20064;-77
2023/03/23 05:27:14;;;;;;;14.40;3.33;;;10.00;99.90;;;;;;5040325;28;20067;-78
2023/03/23 05:29:40;;;;;;;20.27;4.28;;;10.00;99.90;;;;;;5065911;28;20111;-78
2023/03/23 05:32:07;;;;;;;17.48;4.70;;;10.00;99.90;;;;;;5055260;28;20519;-79
2023/03/23 05:34:34;;;;;;;16.27;3.67;;;10.00;99.90;;;;;;5047495;28;20055;-78
2023/03/23 05:37:03;;;;;;;17.50;3.67;;;10.00;99.90;;;;;;5065329;28;20044;-77
2023/03/23 05:39:30;;;;;;;20.33;3.50;;;10.30;99.90;;;;;;5051828;28;20064;-78
2023/03/23 05:41:57;;;;;;;19.73;3.60;;;10.00;99.90;;;;;;5037496;28;20566;-78
2023/03/23 05:44:23;;;;;;;20.80;3.55;;;10.00;99.90;;;;;;5039605;28;20551;-78
2023/03/23 05:46:49;;;;;;;30.13;3.80;;;10.00;99.90;;;;;;5045232;28;20052;-78
2023/03/23 05:49:16;;;;;;;22.17;3.50;;;10.00;99.90;;;;;;5036042;28;20053;-78
2023/03/23 05:51:49;;;;;;;17.33;3.42;;;10.00;99.90;;;;;;5037724;28;20429;-78
2023/03/23 05:54:16;;;;;;;20.38;4.15;;;9.90;99.90;;;;;;5041034;28;20072;-78
2023/03/23 05:56:42;;;;;;;26.90;3.72;;;9.90;99.90;;;;;;5051697;28;20344;-78
2023/03/23 05:59:10;;;;;;;23.05;4.00;;;10.00;99.90;;;;;;5026228;28;20048;-78
2023/03/23 06:01:37;;;;;;;20.20;3.97;;;10.00;99.90;;;;;;5040840;28;20072;-78
2023/03/23 06:04:03;;;;;;;26.52;4.05;;;9.90;99.90;;;;;;5047141;28;20045;-78
2023/03/23 06:06:31;;;;;;;20.63;3.58;;;10.00;99.90;;;;;;5048872;28;20661;-78
2023/03/23 06:08:58;;;;;;;29.58;3.85;;;10.00;99.90;;;;;;5019488;28;20041;-78
2023/03/23 06:11:25;;;;;;;24.10;3.55;;;10.00;99.90;;;;;;5044917;28;20068;-78
2023/03/23 06:13:52;;;;;;;24.65;3.63;;;10.00;99.90;;;;;;5042664;28;20045;-78
2023/03/23 06:16:19;;;;;;;25.63;3.47;;;10.00;99.90;;;;;;5038319;28;20567;-79
2023/03/23 06:18:45;;;;;;;21.92;3.97;;;10.00;99.90;;;;;;5048248;28;20273;-78
2023/03/23 06:21:11;;;;;;;22.67;4.25;;;10.00;99.90;;;;;;5044485;28;20044;-78
2023/03/23 06:23:37;;;;;;;33.60;3.97;;;10.00;99.90;;;;;;5034798;28;20049;-79
2023/03/23 06:26:08;;;;;;;16.80;3.45;;;10.10;99.90;;;;;;5023758;28;20056;-79
2023/03/23 06:28:34;;;;;;;27.20;4.10;;;10.00;99.90;;;;;;5026015;28;20127;-76
2023/03/23 06:31:06;;;;;;;20.13;3.70;;;10.00;99.90;;;;;;5014998;28;20128;-76
2023/03/23 06:33:33;;;;;;;22.88;3.53;;;10.00;99.90;;;;;;5044961;28;20041;-75
2023/03/23 06:35:59;;;;;;;18.23;3.17;;;10.00;99.90;;;;;;5027726;28;20080;-76
2023/03/23 06:38:26;;;;;;;16.35;2.78;;;10.00;99.90;;;;;;5015938;28;20060;-75
2023/03/23 06:40:55;;;;;;;17.35;3.03;;;9.90;99.90;;;;;;5036911;28;20055;-75
2023/03/23 06:43:21;;;;;;;17.50;2.53;;;9.90;99.90;;;;;;5048715;28;20049;-75
2023/03/23 06:45:47;;;;;;;15.80;2.28;;;9.80;99.90;;;;;;5043029;28;20098;-76
2023/03/23 06:48:13;;;;;;;16.90;2.20;;;9.70;99.90;;;;;;5029460;28;21610;-75
2023/03/23 06:50:43;;;;;;;13.20;2.00;;;9.70;99.90;;;;;;5029822;28;20044;-76
2023/03/23 06:53:09;;;;;;;11.48;2.10;;;9.60;99.90;;;;;;5057823;28;20547;-75
2023/03/23 06:55:36;;;;;;;13.85;2.25;;;9.50;99.90;;;;;;5039298;28;20046;-76
2023/03/23 06:58:02;;;;;;;12.68;1.77;;;9.50;99.90;;;;;;5045875;28;20048;-76
2023/03/23 07:00:29;;;;;;;12.13;2.58;;;9.40;99.90;;;;;;5057564;28;20420;-76
2023/03/23 07:02:55;;;;;;;16.50;2.85;;;9.40;99.90;;;;;;5041362;28;20047;-76
2023/03/23 07:05:21;;;;;;;13.20;2.63;;;9.40;99.90;;;;;;5050552;28;20205;-76
2023/03/23 07:07:47;;;;;;;15.60;2.25;;;9.40;99.90;;;;;;5054013;28;20044;-72
2023/03/23 07:10:13;;;;;;;16.40;3.05;;;9.40;99.90;;;;;;5055975;28;20048;-72
2023/03/23 07:12:40;;;;;;;20.00;3.20;;;9.50;99.90;;;;;;5057465;28;20405;-71
2023/03/23 07:15:09;;;;;;;16.38;3.03;;;9.50;99.90;;;;;;5048785;28;20044;-72
2023/03/23 07:17:41;;;;;;;19.65;3.15;;;9.50;99.90;;;;;;5048953;28;20508;-72
2023/03/23 07:20:07;;;;;;;22.77;3.35;;;9.50;99.90;;;;;;5056872;28;20044;-71
2023/03/23 07:22:34;;;;;;;20.85;3.67;;;9.60;99.90;;;;;;5050025;28;20048;-72
2023/03/23 07:24:59;;;;;;;26.95;4.40;;;9.60;99.90;;;;;;5047862;28;20063;-71
2023/03/23 07:27:26;;;;;;;26.42;4.97;;;9.60;99.90;;;;;;5030621;28;20357;-71
2023/03/23 07:29:51;;;;;;;25.25;4.50;;;9.70;99.90;;;;;;5046943;28;20052;-72
2023/03/23 07:32:17;;;;;;;22.98;3.42;;;9.70;99.90;;;;;;5028102;28;20044;-72
2023/03/23 07:34:43;;;;;;;31.02;4.88;;;9.80;99.90;;;;;;5066030;28;20040;-71
2023/03/23 07:37:10;;;;;;;28.63;3.90;;;9.90;99.90;;;;;;5042077;28;20524;-72
2023/03/23 07:39:36;;;;;;;24.30;4.63;;;10.00;99.90;;;;;;5038319;28;20572;-72
2023/03/23 07:42:02;;;;;;;35.95;5.18;;;10.10;99.90;;;;;;5035334;28;20201;-72
2023/03/23 07:44:28;;;;;;;32.33;4.25;;;10.30;99.90;;;;;;5034705;28;20033;-72
2023/03/23 07:46:54;;;;;;;29.15;4.68;;;10.40;99.90;;;;;;5043131;28;20075;-71
2023/03/23 07:49:20;;;;;;;29.58;4.28;;;10.50;99.90;;;;;;5049251;28;20052;-70
2023/03/23 07:51:46;;;;;;;22.77;4.20;;;10.60;99.90;;;;;;5045006;28;20124;-71
2023/03/23 07:54:14;;;;;;;25.25;4.72;;;10.70;99.90;;;;;;5038331;28;20049;-71
2023/03/23 07:56:41;;;;;;;32.80;5.82;;;10.70;99.90;;;;;;5032165;28;21774;-71
2023/03/23 07:59:07;;;;;;;32.83;4.88;;;10.70;99.90;;;;;;5020249;28;20033;-72
2023/03/23 08:01:33;;;;;;;22.58;4.47;;;10.70;99.90;;;;;;5031420;28;20057;-72
2023/03/23 08:04:00;;;;;;;24.20;3.88;;;10.70;99.90;;;;;;5039342;28;20052;-71
2023/03/23 08:06:27;;;;;;;32.10;5.05;;;10.80;99.90;;;;;;5038950;28;20146;-72
2023/03/23 08:08:53;;;;;;;32.97;5.68;;;10.80;99.90;;;;;;5034817;28;20037;-72
2023/03/23 08:11:19;;;;;;;30.00;4.38;;;10.70;99.90;;;;;;5042024;28;20045;-73
2023/03/23 08:13:46;;;;;;;27.80;4.20;;;10.70;99.90;;;;;;5022976;28;20076;-73
2023/03/23 08:16:13;;;;;;;28.35;4.32;;;10.70;99.90;;;;;;5039800;28;20204;-73
2023/03/23 08:18:39;;;;;;;32.72;4.70;;;10.70;99.90;;;;;;5045924;28;20044;-73
2023/03/23 08:21:06;;;;;;;25.58;4.63;;;10.80;99.90;;;;;;5042743;28;20122;-76
2023/03/23 08:23:32;;;;;;;24.17;4.18;;;10.80;99.90;;;;;;5036953;28;20523;-76
2023/03/23 08:25:59;;;;;;;33.15;5.25;;;10.80;99.90;;;;;;5024476;28;20038;-73
2023/03/23 08:28:25;;;;;;;27.38;5.40;;;10.90;99.90;;;;;;5039065;28;20654;-75
2023/03/23 08:30:51;;;;;;;32.80;5.03;;;10.90;99.90;;;;;;5039151;28;20153;-75
2023/03/23 08:33:17;;;;;;;29.08;4.03;;;10.80;99.90;;;;;;5038841;28;20446;-75
2023/03/23 08:35:43;;;;;;;31.00;4.50;;;10.80;99.90;;;;;;5022005;28;20041;-75
2023/03/23 08:38:11;;;;;;;25.48;4.13;;;10.80;99.90;;;;;;5041614;28;20053;-76
2023/03/23 08:40:38;;;;;;;33.42;5.68;;;10.90;99.90;;;;;;5058537;28;20175;-75
2023/03/23 08:43:04;;;;;;;20.65;4.22;;;10.90;99.90;;;;;;5025026;28;20075;-75
2023/03/23 08:45:30;;;;;;;27.63;5.00;;;11.00;99.90;;;;;;5046821;28;20033;-75
2023/03/23 08:47:56;;;;;;;29.13;4.72;;;11.10;99.90;;;;;;5051022;28;20044;-76
2023/03/23 08:50:27;;;;;;;35.20;6.22;;;11.10;99.90;;;;;;5046387;28;20043;-76
2023/03/23 08:52:53;;;;;;;;;;;11.20;99.90;;;;;;5039379;28;20113;-75
2023/03/23 08:55:20;;;;;;;29.33;5.20;;;11.30;99.90;;;;;;5023871;28;19931;-76
2023/03/23 08:57:46;;;;;;;32.17;4.80;;;11.30;99.90;;;;;;5039632;28;20040;-75
2023/03/23 09:00:17;;;;;;;30.63;4.78;;;11.40;99.90;;;;;;5033813;28;20048;-76
2023/03/23 09:02:49;;;;;;;30.25;4.88;;;11.40;99.90;;;;;;5042331;28;20048;-76
2023/03/23 09:05:17;;;;;;;32.85;5.18;;;11.50;99.90;;;;;;5046447;28;20042;-75
2023/03/23 09:07:45;;;;;;;27.80;5.43;;;11.60;99.90;;;;;;5036781;28;20445;-73
2023/03/23 09:10:13;;;;;;;27.67;5.55;;;11.60;99.90;;;;;;5055497;28;20035;-76
2023/03/23 09:12:39;;;;;;;28.67;4.00;;;11.70;99.90;;;;;;5052338;28;20043;-75
2023/03/23 09:15:08;;;;;;;31.67;5.78;;;11.70;99.90;;;;;;5031259;28;20079;-75
2023/03/23 09:17:36;;;;;;;32.13;5.35;;;11.80;99.90;;;;;;5019814;28;20051;-75
2023/03/23 09:20:07;;;;;;;27.73;4.80;;;11.80;99.90;;;;;;5032594;28;21107;-76
2023/03/23 09:22:33;;;;;;;31.48;5.65;;;11.70;99.90;;;;;;5052559;28;20181;-76
2023/03/23 09:24:58;;;;;;;34.90;5.15;;;11.70;99.90;;;;;;5060638;28;20121;-75
2023/03/23 09:27:25;;;;;;;35.50;6.57;;;11.70;99.90;;;;;;5039715;28;20436;-77
2023/03/23 09:29:51;;;;;;;24.77;4.15;;;11.70;99.90;;;;;;5066593;28;20036;-76
2023/03/23 09:32:17;;;;;;;31.05;4.97;;;11.70;99.90;;;;;;5066140;28;20101;-74
2023/03/23 09:34:43;;;;;;;35.00;5.53;;;11.60;99.90;;;;;;5063131;28;20040;-75
2023/03/23 09:37:09;;;;;;;26.10;5.05;;;11.50;99.90;;;;;;5059042;28;20044;-75
2023/03/23 09:39:34;;;;;;;36.70;5.75;;;11.50;99.90;;;;;;5046607;28;20060;-75
2023/03/23 09:42:00;;;;;;;27.15;4.70;;;11.50;99.90;;;;;;5044707;28;20059;-75
2023/03/23 09:44:38;;;;;;;25.55;4.65;;;11.70;99.90;;;;;;5041030;28;20041;-75
2023/03/23 09:47:38;;;;;;;25.10;4.38;;;11.80;99.90;;;;;;5034447;28;20774;-75
2023/03/23 09:50:12;;;;;;;28.52;4.60;;;12.00;99.90;;;;;;5064235;28;20099;-74
2023/03/23 09:52:51;;;;;;;30.88;5.25;;;12.20;99.90;;;;;;5049459;28;20032;-74
2023/03/23 09:55:19;;;;;;;27.88;4.82;;;12.30;99.90;;;;;;5029261;28;20069;-76
2023/03/23 09:58:19;;;;;;;25.13;4.70;;;12.50;99.90;;;;;;5063389;28;20072;-75
2023/03/23 10:00:55;;;;;;;28.02;5.65;;;12.60;99.90;;;;;;4991043;28;20668;-76
2023/03/23 10:03:34;;;;;;;24.92;4.43;;;12.60;99.90;;;;;;5062402;28;20051;-76
2023/03/23 10:06:00;;;;;;;26.23;4.85;;;12.60;99.90;;;;;;5061428;28;20963;-75
2023/03/23 10:08:31;;;;;;;24.55;4.18;;;12.60;99.90;;;;;;5030686;28;20059;-76
2023/03/23 10:11:07;;;;;;;20.60;4.35;;;12.70;99.90;;;;;;5050244;28;20516;-75
2023/03/23 10:14:06;;;;;;;26.13;4.65;;;12.70;99.90;;;;;;5053526;28;20060;-76
2023/03/23 10:16:38;;;;;;;23.63;4.65;;;12.70;99.90;;;;;;5049109;28;20032;-76
2023/03/23 10:19:39;;;;;;;22.30;4.30;;;12.70;99.90;;;;;;5064933;28;21959;-75
2023/03/23 10:22:14;;;;;;;26.15;3.90;;;12.70;99.90;;;;;;5036023;28;20428;-75
2023/03/23 10:24:49;;;;;;;23.30;4.28;;;12.70;99.90;;;;;;5045030;28;20381;-75
2023/03/23 10:27:36;;;;;;;19.30;3.63;;;12.80;99.90;;;;;;5054133;28;20067;-75
2023/03/23 10:30:14;;;;;;;27.95;4.75;;;12.80;99.90;;;;;;5056754;28;20049;-76
2023/03/23 10:32:48;;;;;;;25.13;4.50;;;12.80;99.90;;;;;;5053793;28;20044;-75
2023/03/23 10:35:19;;;;;;;23.38;4.38;;;12.70;99.90;;;;;;5048451;28;20139;-75
2023/03/23 10:37:51;;;;;;;25.13;4.23;;;12.60;99.90;;;;;;5047027;28;20048;-75
2023/03/23 10:40:23;;;;;;;24.83;4.22;;;12.50;99.90;;;;;;5064940;28;20084;-74
2023/03/23 10:42:51;;;;;;;22.40;3.97;;;12.40;99.90;;;;;;5044832;28;20105;-77
2023/03/23 10:45:19;;;;;;;23.55;4.40;;;12.30;99.90;;;;;;5070091;28;20098;-77
2023/03/23 10:47:59;;;;;;;27.08;4.38;;;12.30;99.90;;;;;;5067530;28;20174;-75
2023/03/23 10:50:32;;;;;;;28.63;4.85;;;12.20;99.90;;;;;;5052113;28;20104;-76
2023/03/23 10:53:00;;;;;;;24.60;4.13;;;12.20;99.90;;;;;;5067633;28;20119;-76
2023/03/23 10:55:40;;;;;;;30.15;4.57;;;12.10;99.90;;;;;;5049212;28;20048;-75
2023/03/23 10:58:11;;;;;;;26.90;4.47;;;12.10;99.90;;;;;;5053908;28;20044;-76
2023/03/23 11:00:44;;;;;;;;;;;12.00;99.90;;;;;;5049075;28;20044;-76
2023/03/23 11:03:22;;;;;;;31.40;5.20;;;12.00;99.90;;;;;;5052307;28;19955;-76
2023/03/23 11:06:10;;;;;;;26.92;4.18;;;12.00;99.90;;;;;;5030263;28;20036;-75
2023/03/23 11:08:48;;;;;;;24.92;4.03;;;12.00;99.90;;;;;;5059551;28;20040;-76
2023/03/23 11:11:28;;;;;;;20.38;3.85;;;12.00;99.90;;;;;;5040797;28;20130;-75
2023/03/23 11:14:22;;;;;;;25.13;4.18;;;12.10;99.90;;;;;;5046020;28;20056;-75
2023/03/23 11:17:02;;;;;;;22.95;4.00;;;12.10;99.90;;;;;;5012941;28;20075;-76
2023/03/23 11:19:31;;;;;;;20.85;3.47;;;12.10;99.90;;;;;;5046916;28;20102;-76
2023/03/23 11:22:27;;;;;;;22.77;3.72;;;12.20;99.90;;;;;;5035807;28;20051;-76
2023/03/23 11:25:01;;;;;;;19.88;3.17;;;12.30;99.90;;;;;;5047104;28;20045;-77
2023/03/23 11:27:28;;;;;;;21.92;3.33;;;12.50;99.90;;;;;;5058867;28;20050;-75
2023/03/23 11:30:15;;;;;;;19.02;3.65;;;12.60;99.90;;;;;;5064063;28;20527;-75
2023/03/23 11:32:44;;;;;;;23.02;3.78;;;12.80;99.90;;;;;;5043477;28;20055;-75
2023/03/23 11:35:25;;;;;;;19.65;3.67;;;12.90;99.90;;;;;;5059057;28;20155;-74
2023/03/23 11:37:57;;;;;;;23.20;3.20;;;13.10;99.90;;;;;;5059182;28;20408;-75
2023/03/23 11:40:29;;;;;;;19.13;3.17;;;13.10;99.90;;;;;;5074897;28;20412;-76
2023/03/23 11:43:07;;;;;;;19.60;3.80;;;13.20;99.90;;;;;;5061203;28;20055;-75
2023/03/23 11:45:59;;;;;;;20.30;3.90;;;13.20;99.90;;;;;;5059658;28;20040;-75
2023/03/23 11:48:36;;;;;;;16.85;3.38;;;13.30;99.90;;;;;;5069844;28;20057;-76
2023/03/23 11:51:23;;;;;;;21.42;3.63;;;13.40;99.90;;;;;;5064710;28;20448;-77
2023/03/23 11:54:08;;;;;;;16.60;3.30;;;13.40;99.90;;;;;;5059308;28;20044;-76
2023/03/23 11:56:39;;;;;;;17.27;3.05;;;13.50;99.90;;;;;;5033958;28;20040;-76
2023/03/23 11:59:16;;;;;;;18.35;3.13;;;13.70;99.90;;;;;;5034698;28;20234;-75
2023/03/23 12:02:07;;;;;;;17.00;2.72;;;13.70;99.90;;;;;;5034730;28;20287;-76
2023/03/23 12:04:54;;;;;;;16.52;3.10;;;13.80;99.90;;;;;;5062724;28;20564;-75
2023/03/23 12:07:52;;;;;;;19.10;2.78;;;13.90;99.90;;;;;;5048178;28;20053;-75
2023/03/23 12:10:30;;;;;;;17.20;2.95;;;13.90;99.90;;;;;;5049154;28;20178;-75
2023/03/23 12:13:28;;;;;;;17.05;2.97;;;14.00;99.90;;;;;;5055262;28;20595;-74
2023/03/23 12:16:03;;;;;;;18.50;3.15;;;14.00;99.90;;;;;;5056181;28;20060;-75
2023/03/23 12:18:47;;;;;;;20.23;3.38;;;14.10;99.90;;;;;;5048067;28;20079;-76
2023/03/23 12:21:40;;;;;;;16.33;3.60;;;14.10;99.90;;;;;;5042825;28;20649;-75
2023/03/23 12:24:17;;;;;;;17.65;2.90;;;14.10;99.90;;;;;;5048925;28;20143;-74
2023/03/23 12:26:56;;;;;;;20.77;3.45;;;14.10;99.90;;;;;;5050531;28;20504;-75
2023/03/23 12:29:44;;;;;;;19.92;3.72;;;14.20;99.90;;;;;;5063230;28;20477;-75
2023/03/23 12:32:36;;;;;;;19.52;2.97;;;14.20;99.90;;;;;;5048665;28;20046;-75
2023/03/23 12:35:34;;;;;;;15.25;3.00;;;14.20;99.90;;;;;;5011337;28;20064;-75
2023/03/23 12:38:29;;;;;;;15.63;2.97;;;14.10;99.90;;;;;;5059211;28;20049;-75
2023/03/23 12:41:17;;;;;;;16.77;3.00;;;14.10;99.90;;;;;;5042103;28;20137;-76
2023/03/23 12:43:58;;;;;;;17.67;2.90;;;14.20;99.90;;;;;;5044283;28;20103;-75
2023/03/23 12:46:43;;;;;;;19.73;3.78;;;14.20;99.90;;;;;;5055934;28;20445;-75
2023/03/23 12:49:48;;;;;;;16.02;3.08;;;14.10;99.90;;;;;;5041095;28;20136;-74
2023/03/23 12:52:33;;;;;;;17.88;2.75;;;14.00;99.90;;;;;;5063227;28;20044;-75
2023/03/23 12:55:17;;;;;;;14.13;2.85;;;13.80;99.90;;;;;;5052711;28;20070;-76
2023/03/23 12:57:59;;;;;;;19.42;2.83;;;13.70;99.90;;;;;;5040284;28;20074;-75
2023/03/23 13:00:51;;;;;;;16.85;2.92;;;13.70;99.90;;;;;;5065758;28;20594;-74